createdAt,value
2018-02-21T00:09:04.232Z,45.07
2018-02-21T00:19:05.743Z,49.03
2018-02-21T00:29:07.213Z,46.17
2018-02-21T00:39:09.461Z,42.43
2018-02-21T00:49:11.700Z,45.17
2018-02-21T00:59:13.258Z,42.60
2018-02-21T01:09:14.844Z,39.10
2018-02-21T01:19:17.078Z,41.33
2018-02-21T01:29:18.632Z,41.50
2018-02-21T01:39:20.185Z,42.20
2018-02-21T01:49:21.676Z,37.53
2018-02-21T01:59:23.282Z,39.27
2018-02-21T02:09:24.809Z,41.50
2018-02-21T02:19:26.379Z,38.10
2018-02-21T02:29:27.905Z,44.73
2018-02-21T02:39:47.845Z,42.60
2018-02-21T02:49:49.394Z,48.13
2018-02-21T02:59:50.980Z,50.03
2018-02-21T03:09:52.444Z,48.17
2018-02-21T03:19:53.993Z,51.13
2018-02-21T03:29:55.566Z,50.37
2018-02-21T03:39:57.161Z,48.60
2018-02-21T03:49:58.693Z,52.90
2018-02-21T04:00:00.239Z,50.90
2018-02-21T04:10:01.782Z,48.63
2018-02-21T04:20:04.053Z,49.83
2018-02-21T04:30:05.592Z,45.13
2018-02-21T04:40:07.842Z,45.40
2018-02-21T04:50:09.440Z,44.87
2018-02-21T05:00:11.793Z,41.00
2018-02-21T05:10:13.296Z,44.20
2018-02-21T05:20:15.031Z,42.00
2018-02-21T05:30:18.204Z,49.70
2018-02-21T05:40:19.880Z,48.27
2018-02-21T05:50:22.240Z,46.43
2018-02-21T06:00:23.788Z,50.40
2018-02-21T06:10:26.088Z,49.17
2018-02-21T06:20:27.673Z,45.40
2018-02-21T06:30:29.171Z,45.20
2018-02-21T06:40:30.766Z,45.33
2018-02-21T06:50:32.241Z,49.67
2018-02-21T07:00:33.893Z,43.50
2018-02-21T07:10:36.146Z,45.07
2018-02-21T07:20:37.700Z,42.67
2018-02-21T07:30:39.230Z,41.93
2018-02-21T07:40:41.528Z,38.47
2018-02-21T07:50:43.802Z,38.13
2018-02-21T08:00:45.450Z,36.77
2018-02-21T08:10:47.756Z,38.60
2018-02-21T08:20:49.348Z,38.10
2018-02-21T08:30:50.887Z,38.13
2018-02-21T08:40:52.400Z,36.53
2018-02-21T08:50:53.902Z,37.80
2018-02-21T09:00:55.409Z,35.47
2018-02-21T09:10:57.275Z,39.67
2018-02-21T09:20:58.780Z,33.03
2018-02-21T09:31:01.065Z,33.43
2018-02-21T09:41:02.651Z,37.37
2018-02-21T09:51:05.114Z,35.13
2018-02-21T10:01:07.400Z,31.60
2018-02-21T10:11:08.985Z,32.13
2018-02-21T10:21:10.550Z,33.50
2018-02-21T10:31:12.078Z,33.43
2018-02-21T10:41:13.589Z,33.23
2018-02-21T10:51:15.169Z,28.23
2018-02-21T11:01:21.666Z,27.27
2018-02-21T11:11:23.287Z,26.47
2018-02-21T11:21:24.878Z,28.90
2018-02-21T11:31:26.426Z,26.53
2018-02-21T11:41:27.962Z,26.70
2018-02-21T11:51:29.549Z,26.03
2018-02-21T12:01:31.827Z,26.00
2018-02-21T12:11:33.357Z,24.97
2018-02-21T12:21:35.624Z,26.93
2018-02-21T12:31:37.187Z,26.80
2018-02-21T12:41:42.658Z,25.53
2018-02-21T12:51:44.238Z,25.80
2018-02-21T13:01:45.756Z,23.43
2018-02-21T13:11:47.356Z,24.77
2018-02-21T13:21:48.856Z,22.00
2018-02-21T13:31:50.426Z,20.47
2018-02-21T13:41:52.015Z,20.80
2018-02-21T13:51:53.571Z,20.63
2018-02-21T14:01:55.883Z,20.00
2018-02-21T14:11:58.259Z,16.67
2018-02-21T14:21:59.754Z,18.37
2018-02-21T14:32:01.292Z,19.33
2018-02-21T14:42:02.880Z,18.03
2018-02-21T14:52:04.421Z,19.23
2018-02-21T15:02:05.996Z,18.37
2018-02-21T15:12:08.317Z,16.73
2018-02-21T15:22:10.622Z,20.00
2018-02-21T15:32:12.087Z,16.73
2018-02-21T15:42:13.662Z,17.87
2018-02-21T15:52:15.256Z,19.90
2018-02-21T16:02:16.893Z,18.50
2018-02-21T16:12:18.458Z,19.67
2018-02-21T16:22:20.097Z,18.77
2018-02-21T16:32:21.699Z,22.60
2018-02-21T16:42:23.233Z,23.53
2018-02-21T16:52:25.559Z,23.70
2018-02-21T17:02:27.893Z,24.17
2018-02-21T17:12:29.451Z,22.07
2018-02-21T17:22:30.967Z,22.00
2018-02-21T17:32:33.374Z,22.07
2018-02-21T17:42:35.540Z,20.87
2018-02-21T17:52:37.147Z,18.60
2018-02-21T18:02:38.726Z,18.03
2018-02-21T18:12:40.308Z,17.97
2018-02-21T18:22:42.578Z,19.80
2018-02-21T18:32:44.118Z,20.07
2018-02-21T18:42:46.351Z,19.03
2018-02-21T18:52:47.887Z,19.33
2018-02-21T19:02:49.397Z,19.77
2018-02-21T19:12:51.040Z,21.10
2018-02-21T19:22:52.773Z,22.20
2018-02-21T19:32:54.351Z,25.30
2018-02-21T19:42:55.965Z,29.80
2018-02-21T19:52:57.601Z,30.83
2018-02-21T20:02:59.173Z,30.67
2018-02-21T20:13:00.768Z,37.67
2018-02-21T20:23:02.476Z,33.50
2018-02-21T20:33:04.052Z,36.60
2018-02-21T20:43:06.259Z,36.83
2018-02-21T20:53:08.641Z,34.87
2018-02-21T21:03:10.256Z,33.03
2018-02-21T21:13:11.731Z,35.53
2018-02-21T21:23:13.253Z,36.23
2018-02-21T21:33:14.794Z,36.53
2018-02-21T21:43:17.006Z,36.50
2018-02-21T21:53:19.210Z,35.33
2018-02-21T22:03:21.478Z,36.53
2018-02-21T22:13:23.053Z,39.30
2018-02-21T22:23:24.642Z,36.67
2018-02-21T22:33:26.988Z,36.00
2018-02-21T22:43:28.513Z,35.73
2018-02-21T22:53:30.107Z,34.27
2018-02-21T23:03:31.674Z,33.10
2018-02-21T23:13:33.193Z,33.40
2018-02-21T23:23:34.749Z,31.77
2018-02-21T23:33:37.033Z,27.97
2018-02-21T23:43:38.582Z,33.60
2018-02-21T23:53:40.248Z,25.63
